createdAt,value
2023-04-26T00:03:16.601Z,2.63
2023-04-26T00:08:21.688Z,2.20
2023-04-26T00:13:25.445Z,1.95
2023-04-26T00:18:28.701Z,1.70
2023-04-26T00:23:33.640Z,1.70
2023-04-26T00:28:37.190Z,2.37
2023-04-26T00:33:40.467Z,1.60
2023-04-26T00:38:45.133Z,2.25
2023-04-26T00:43:48.592Z,1.53
2023-04-26T00:48:52.953Z,1.50
2023-04-26T00:53:58.353Z,1.37
2023-04-26T00:59:01.805Z,1.90
2023-04-26T01:04:05.805Z,1.48
2023-04-26T01:09:14.802Z,1.50
2023-04-26T01:14:18.269Z,2.22
2023-04-26T01:19:21.507Z,1.90
2023-04-26T01:24:26.517Z,1.92
2023-04-26T01:29:30.383Z,1.50
2023-04-26T01:34:34.543Z,1.63
2023-04-26T01:39:39.218Z,2.00
2023-04-26T01:44:42.392Z,2.10
2023-04-26T01:49:45.619Z,2.28
2023-04-26T01:54:51.414Z,2.25
2023-04-26T01:59:56.861Z,2.20
2023-04-26T02:05:02.430Z,1.92
2023-04-26T02:10:08.470Z,2.20
2023-04-26T02:15:12.688Z,1.67
2023-04-26T02:20:16.571Z,1.70
2023-04-26T02:25:21.481Z,1.80
2023-04-26T02:30:24.708Z,2.67
2023-04-26T02:35:28.403Z,1.60
2023-04-26T02:40:33.063Z,1.75
2023-04-26T02:45:43.104Z,2.47
2023-04-26T02:50:49.348Z,2.05
2023-04-26T02:55:54.601Z,1.98
2023-04-26T03:01:01.080Z,1.67
2023-04-26T03:06:05.397Z,1.92
2023-04-26T03:11:10.776Z,1.95
2023-04-26T03:16:14.701Z,2.15
2023-04-26T03:21:18.136Z,2.35
2023-04-26T03:26:23.631Z,2.20
2023-04-26T03:31:27.916Z,1.48
2023-04-26T03:36:31.825Z,2.60
2023-04-26T03:41:39.776Z,2.00
2023-04-26T03:46:45.256Z,1.90
2023-04-26T03:51:48.506Z,2.00
2023-04-26T03:56:53.907Z,1.95
2023-04-26T04:01:57.157Z,4.05
2023-04-26T04:07:01.064Z,2.10
2023-04-26T04:12:06.442Z,2.50
2023-04-26T04:17:10.197Z,2.30
2023-04-26T04:22:13.476Z,2.20
2023-04-26T04:27:18.226Z,2.58
2023-04-26T04:32:47.150Z,2.33
2023-04-26T04:37:52.810Z,2.10
2023-04-26T04:42:57.616Z,2.40
2023-04-26T04:48:05.181Z,2.85
2023-04-26T04:53:08.997Z,2.45
2023-04-26T04:58:14.850Z,1.77
2023-04-26T05:03:19.610Z,2.35
2023-04-26T05:08:23.800Z,2.75
2023-04-26T05:13:28.959Z,2.15
2023-04-26T05:18:32.394Z,2.07
2023-04-26T05:23:36.284Z,2.10
2023-04-26T05:28:41.361Z,2.38
2023-04-26T05:34:10.935Z,2.03
2023-04-26T05:39:16.025Z,2.30
2023-04-26T05:44:21.217Z,2.42
2023-04-26T05:49:25.021Z,3.20
2023-04-26T05:54:28.233Z,2.83
2023-04-26T05:59:36.964Z,2.50
2023-04-26T06:04:41.091Z,2.05
2023-04-26T06:09:48.095Z,3.25
2023-04-26T06:14:52.742Z,2.63
2023-04-26T06:19:58.265Z,2.67
2023-04-26T06:25:01.727Z,2.60
2023-04-26T06:30:08.489Z,2.80
2023-04-26T06:35:15.244Z,1.80
2023-04-26T06:40:19.046Z,2.55
2023-04-26T06:45:23.711Z,3.00
2023-04-26T06:50:26.977Z,2.13
2023-04-26T06:55:30.760Z,2.83
2023-04-26T07:00:35.936Z,2.20
2023-04-26T07:05:40.760Z,3.63
2023-04-26T07:10:44.152Z,2.43
2023-04-26T07:15:48.845Z,2.42
2023-04-26T07:20:52.537Z,2.05
2023-04-26T07:25:57.685Z,1.80
2023-04-26T07:31:02.949Z,2.50
2023-04-26T07:36:06.761Z,2.40
2023-04-26T07:41:09.963Z,2.42
2023-04-26T07:46:14.640Z,2.35
2023-04-26T07:51:18.207Z,2.08
2023-04-26T07:56:21.465Z,2.40
2023-04-26T08:01:26.119Z,2.10
2023-04-26T08:06:30.082Z,1.58
2023-04-26T08:11:33.852Z,2.00
2023-04-26T08:16:38.959Z,1.85
2023-04-26T08:21:42.662Z,1.27
2023-04-26T08:26:46.258Z,1.45
2023-04-26T08:31:51.386Z,1.80
2023-04-26T08:36:54.672Z,2.10
2023-04-26T08:42:05.525Z,2.28
2023-04-26T08:47:17.363Z,1.92
2023-04-26T08:52:23.482Z,2.72
2023-04-26T08:57:27.325Z,2.53
2023-04-26T09:02:32.900Z,2.45
2023-04-26T09:07:41.973Z,1.63
2023-04-26T09:12:45.729Z,1.98
2023-04-26T09:17:51.808Z,1.77
2023-04-26T09:23:04.837Z,1.50
2023-04-26T09:28:21.535Z,1.63
2023-04-26T09:33:26.310Z,1.90
2023-04-26T09:38:29.976Z,1.85
2023-04-26T09:43:38.758Z,2.08
2023-04-26T09:48:43.450Z,1.67
2023-04-26T09:53:48.489Z,2.20
2023-04-26T09:59:00.728Z,2.40
2023-04-26T10:04:07.586Z,2.35
2023-04-26T10:09:11.641Z,2.42
2023-04-26T10:14:15.570Z,1.67
2023-04-26T10:19:21.349Z,1.70
2023-04-26T10:24:25.562Z,1.98
2023-04-26T10:30:09.522Z,1.75
2023-04-26T10:35:17.242Z,2.15
2023-04-26T10:40:28.856Z,1.73
2023-04-26T10:45:32.646Z,1.60
2023-04-26T10:51:15.826Z,1.50
2023-04-26T10:56:52.281Z,1.83
2023-04-26T11:01:55.604Z,2.35
2023-04-26T11:07:05.109Z,1.85
2023-04-26T11:12:12.662Z,2.03
2023-04-26T11:17:17.039Z,2.17
2023-04-26T11:22:23.630Z,1.90
2023-04-26T11:27:29.288Z,2.20
2023-04-26T11:32:32.547Z,1.58
2023-04-26T11:37:37.221Z,1.90
2023-04-26T11:42:42.324Z,1.70
2023-04-26T11:47:47.753Z,1.60
2023-04-26T11:52:54.529Z,1.80
2023-04-26T11:57:58.796Z,1.58
2023-04-26T12:03:07.431Z,2.53
2023-04-26T12:08:12.641Z,2.10
2023-04-26T12:13:16.539Z,2.20
2023-04-26T12:18:20.446Z,1.75
2023-04-26T12:23:26.603Z,2.63
2023-04-26T12:28:29.870Z,2.47
2023-04-26T12:33:33.267Z,2.05
2023-04-26T12:38:37.998Z,1.95
2023-04-26T12:43:41.870Z,2.23
2023-04-26T12:48:45.790Z,1.92
2023-04-26T12:53:51.119Z,1.70
2023-04-26T12:58:54.467Z,1.95
2023-04-26T13:03:59.898Z,1.77
2023-04-26T13:09:09.898Z,1.42
2023-04-26T13:14:13.415Z,1.67
2023-04-26T13:19:17.130Z,1.30
2023-04-26T13:24:21.757Z,2.17
2023-04-26T13:29:25.377Z,1.97
2023-04-26T13:34:28.737Z,1.70
2023-04-26T13:39:33.352Z,2.22
2023-04-26T13:44:36.595Z,1.92
2023-04-26T13:49:41.031Z,1.70
2023-04-26T13:54:45.932Z,1.38
2023-04-26T13:59:49.544Z,1.88
2023-04-26T14:04:53.362Z,2.10
2023-04-26T14:09:58.496Z,1.40
2023-04-26T14:15:04.525Z,2.80
2023-04-26T14:20:10.826Z,1.73
2023-04-26T14:25:16.010Z,2.22
2023-04-26T14:30:19.666Z,1.73
2023-04-26T14:35:23.420Z,1.95
2023-04-26T14:40:28.486Z,1.58
2023-04-26T14:45:44.203Z,1.60
2023-04-26T14:50:48.657Z,1.80
2023-04-26T14:55:57.300Z,1.23
2023-04-26T15:01:00.975Z,1.88
2023-04-26T15:06:04.834Z,1.50
2023-04-26T15:11:09.441Z,2.25
2023-04-26T15:16:12.736Z,1.67
2023-04-26T15:21:19.379Z,1.75
2023-04-26T15:26:24.210Z,1.65
2023-04-26T15:31:27.500Z,1.77
2023-04-26T15:36:30.688Z,1.63
2023-04-26T15:41:35.227Z,2.15
2023-04-26T15:46:38.687Z,1.92
2023-04-26T15:51:41.973Z,2.33
2023-04-26T15:56:47.793Z,1.52
2023-04-26T16:01:51.242Z,1.73
2023-04-26T16:06:54.688Z,2.17
2023-04-26T16:11:59.294Z,1.80
2023-04-26T16:17:05.201Z,1.42
2023-04-26T16:22:30.435Z,1.42
2023-04-26T16:27:47.738Z,1.57
2023-04-26T16:33:12.354Z,2.13
2023-04-26T16:38:16.079Z,1.55
2023-04-26T16:43:21.472Z,1.30
2023-04-26T16:48:24.801Z,1.60
2023-04-26T16:53:28.440Z,1.60
2023-04-26T16:58:33.370Z,1.42
2023-04-26T17:03:37.284Z,1.70
2023-04-26T17:08:40.742Z,1.42
2023-04-26T17:13:46.051Z,1.52
2023-04-26T17:18:49.861Z,2.05
2023-04-26T17:23:53.520Z,1.80
2023-04-26T17:28:58.164Z,1.55
2023-04-26T17:34:02.678Z,1.58
2023-04-26T17:39:08.128Z,1.20
2023-04-26T17:44:12.993Z,1.48
2023-04-26T17:49:16.628Z,1.30
2023-04-26T17:54:19.846Z,1.70
2023-04-26T17:59:24.395Z,1.63
2023-04-26T18:04:27.919Z,1.80
2023-04-26T18:09:31.557Z,1.80
2023-04-26T18:14:36.443Z,2.33
2023-04-26T18:19:39.696Z,1.53
2023-04-26T18:24:42.946Z,2.30
2023-04-26T18:29:49.118Z,2.60
2023-04-26T18:34:52.622Z,2.00
2023-04-26T18:39:55.967Z,2.50
2023-04-26T18:45:01.046Z,2.78
2023-04-26T18:50:04.462Z,3.72
2023-04-26T18:55:08.893Z,2.22
2023-04-26T19:00:16.072Z,3.78
2023-04-26T19:05:19.454Z,2.88
2023-04-26T19:10:23.224Z,2.53
2023-04-26T19:15:28.268Z,2.53
2023-04-26T19:20:31.945Z,3.90
2023-04-26T19:25:35.948Z,3.33
2023-04-26T19:30:40.762Z,3.30
2023-04-26T19:35:44.100Z,3.97
2023-04-26T19:40:47.333Z,3.65
2023-04-26T19:45:51.995Z,8.98
2023-04-26T19:50:55.359Z,4.25
2023-04-26T19:55:58.654Z,4.18
2023-04-26T20:01:03.587Z,6.03
2023-04-26T20:06:07.099Z,5.55
2023-04-26T20:11:15.463Z,5.13
2023-04-26T20:16:20.537Z,4.55
2023-04-26T20:21:23.921Z,4.30
2023-04-26T20:26:27.588Z,4.03
2023-04-26T20:31:32.683Z,4.45
2023-04-26T20:36:36.349Z,4.80
2023-04-26T20:41:40.243Z,4.38
2023-04-26T20:46:45.259Z,4.07
2023-04-26T20:51:48.573Z,4.33
2023-04-26T20:56:52.205Z,4.32
2023-04-26T21:01:57.279Z,3.97
2023-04-26T21:07:01.052Z,2.92
2023-04-26T21:12:04.786Z,4.07
2023-04-26T21:17:09.515Z,4.38
2023-04-26T21:22:12.793Z,4.10
2023-04-26T21:27:16.033Z,5.03
2023-04-26T21:32:20.658Z,4.47
2023-04-26T21:37:24.305Z,7.10
2023-04-26T21:42:27.912Z,4.50
2023-04-26T21:47:32.529Z,4.03
2023-04-26T21:52:35.927Z,3.75
2023-04-26T21:57:39.350Z,4.45
2023-04-26T22:02:44.440Z,4.15
2023-04-26T22:07:47.752Z,4.45
2023-04-26T22:12:51.375Z,4.07
2023-04-26T22:17:56.372Z,3.88
2023-04-26T22:23:00.000Z,3.70
2023-04-26T22:28:03.803Z,3.85
2023-04-26T22:33:10.968Z,3.90
2023-04-26T22:38:14.612Z,7.35
2023-04-26T22:43:17.900Z,4.07
2023-04-26T22:48:22.922Z,4.28
2023-04-26T22:53:26.528Z,4.15
2023-04-26T22:58:30.088Z,4.15
2023-04-26T23:03:36.825Z,4.72
2023-04-26T23:08:40.613Z,4.72
2023-04-26T23:13:43.856Z,5.38
2023-04-26T23:18:48.492Z,5.47
2023-04-26T23:23:52.056Z,5.88
2023-04-26T23:28:55.738Z,4.65
2023-04-26T23:34:00.703Z,5.90
2023-04-26T23:39:04.651Z,5.40
2023-04-26T23:44:08.713Z,5.55
2023-04-26T23:49:14.084Z,5.85
2023-04-26T23:59:20.927Z,5.35
